createdAt,value
2018-11-25T00:01:53.544Z,12.87
2018-11-25T00:04:24.324Z,12.23
2018-11-25T00:06:55.161Z,14.17
2018-11-25T00:09:25.750Z,11.43
2018-11-25T00:11:56.339Z,11.33
2018-11-25T00:14:26.950Z,11.23
2018-11-25T00:16:57.543Z,10.37
2018-11-25T00:19:28.096Z,12.53
2018-11-25T00:21:58.666Z,10.97
2018-11-25T00:24:29.247Z,11.33
2018-11-25T00:27:00.926Z,11.93
2018-11-25T00:29:31.420Z,11.57
2018-11-25T00:32:01.981Z,12.17
2018-11-25T00:34:32.533Z,12.10
2018-11-25T00:37:03.064Z,12.57
2018-11-25T00:39:33.556Z,12.47
2018-11-25T00:42:04.207Z,12.43
2018-11-25T00:44:34.843Z,11.80
2018-11-25T00:47:07.590Z,12.87
2018-11-25T00:49:38.179Z,11.87
2018-11-25T00:52:08.709Z,12.90
2018-11-25T00:54:39.253Z,13.43
2018-11-25T00:57:09.836Z,13.60
2018-11-25T00:59:40.426Z,11.93
2018-11-25T01:02:12.765Z,12.67
2018-11-25T01:04:43.221Z,11.83
2018-11-25T01:07:13.873Z,13.73
2018-11-25T01:09:44.449Z,14.00
2018-11-25T01:12:15.088Z,13.87
2018-11-25T01:14:45.650Z,14.03
2018-11-25T01:17:16.237Z,14.23
2018-11-25T01:19:47.115Z,14.00
2018-11-25T01:22:17.590Z,16.97
2018-11-25T01:24:48.135Z,14.97
2018-11-25T01:27:18.737Z,14.87
2018-11-25T01:29:49.265Z,14.60
2018-11-25T01:32:19.870Z,14.67
2018-11-25T01:34:50.528Z,14.87
2018-11-25T01:37:21.671Z,14.63
2018-11-25T01:39:52.268Z,14.83
2018-11-25T01:42:22.794Z,15.30
2018-11-25T01:44:53.460Z,14.83
2018-11-25T01:47:26.111Z,14.47
2018-11-25T01:49:56.573Z,16.13
2018-11-25T01:52:27.073Z,17.13
2018-11-25T01:54:57.580Z,15.00
2018-11-25T01:57:28.565Z,15.97
2018-11-25T01:59:59.162Z,15.47
2018-11-25T02:02:29.759Z,14.33
2018-11-25T02:05:00.282Z,15.40
2018-11-25T02:07:30.866Z,14.90
2018-11-25T02:10:01.368Z,16.23
2018-11-25T02:12:32.016Z,14.97
2018-11-25T02:15:02.528Z,15.70
2018-11-25T02:17:33.050Z,18.33
2018-11-25T02:20:03.625Z,22.73
2018-11-25T02:22:34.129Z,28.07
2018-11-25T02:25:04.735Z,26.53
2018-11-25T02:27:35.407Z,27.47
2018-11-25T02:30:07.111Z,19.03
2018-11-25T02:32:37.715Z,17.87
2018-11-25T02:35:10.011Z,17.47
2018-11-25T02:37:40.552Z,22.73
2018-11-25T02:40:12.312Z,22.83
2018-11-25T02:42:43.765Z,18.60
2018-11-25T02:45:18.847Z,17.73
2018-11-25T02:47:49.495Z,17.20
2018-11-25T02:50:25.507Z,19.07
2018-11-25T02:52:57.041Z,21.07
2018-11-25T02:55:28.214Z,18.83
2018-11-25T02:57:58.848Z,17.83
2018-11-25T03:00:29.502Z,18.43
2018-11-25T03:03:00.048Z,17.50
2018-11-25T03:05:30.572Z,15.03
2018-11-25T03:08:01.400Z,17.57
2018-11-25T03:10:32.041Z,18.60
2018-11-25T03:13:02.646Z,16.90
2018-11-25T03:15:33.151Z,16.20
2018-11-25T03:18:03.798Z,16.53
2018-11-25T03:20:34.235Z,13.53
2018-11-25T03:23:04.771Z,14.73
2018-11-25T03:25:35.379Z,14.27
2018-11-25T03:28:06.590Z,13.93
2018-11-25T03:30:37.198Z,17.07
2018-11-25T03:33:08.075Z,15.83
2018-11-25T03:35:38.591Z,14.87
2018-11-25T03:38:09.166Z,15.53
2018-11-25T03:40:39.780Z,15.53
2018-11-25T03:43:10.339Z,14.40
2018-11-25T03:45:40.961Z,14.07
2018-11-25T03:48:11.708Z,14.73
2018-11-25T03:50:42.960Z,15.83
2018-11-25T03:53:13.430Z,14.53
2018-11-25T03:55:43.908Z,15.03
2018-11-25T03:58:14.523Z,13.80
2018-11-25T04:00:45.169Z,14.83
2018-11-25T04:03:15.681Z,17.93
2018-11-25T04:05:46.242Z,19.87
2018-11-25T04:08:17.824Z,19.97
2018-11-25T04:10:48.360Z,21.43
2018-11-25T04:13:18.965Z,19.23
2018-11-25T04:15:49.531Z,19.33
2018-11-25T04:18:20.059Z,20.23
2018-11-25T04:20:50.552Z,25.17
2018-11-25T04:23:21.155Z,22.70
2018-11-25T04:25:51.695Z,21.67
2018-11-25T04:28:22.548Z,22.40
2018-11-25T04:30:53.054Z,23.60
2018-11-25T04:33:23.594Z,24.70
2018-11-25T04:35:54.142Z,24.57
2018-11-25T04:38:24.596Z,45.73
2018-11-25T04:40:55.103Z,38.07
2018-11-25T04:43:25.534Z,34.30
2018-11-25T04:45:56.078Z,29.43
2018-11-25T04:48:27.695Z,21.30
2018-11-25T04:50:58.156Z,19.00
2018-11-25T04:53:28.683Z,17.53
2018-11-25T04:55:59.194Z,17.53
2018-11-25T04:58:29.678Z,17.67
2018-11-25T05:01:00.309Z,16.27
2018-11-25T05:03:30.770Z,16.57
2018-11-25T05:06:01.408Z,16.00
2018-11-25T05:08:32.117Z,16.60
2018-11-25T05:11:02.669Z,17.73
2018-11-25T05:13:33.168Z,18.70
2018-11-25T05:16:03.728Z,18.60
2018-11-25T05:18:34.231Z,20.57
2018-11-25T05:21:04.842Z,21.00
2018-11-25T05:23:35.346Z,21.97
2018-11-25T05:26:05.933Z,24.27
2018-11-25T05:28:36.707Z,25.77
2018-11-25T05:31:07.406Z,32.77
2018-11-25T05:33:37.926Z,51.17
2018-11-25T05:36:08.447Z,38.57
2018-11-25T05:38:39.050Z,32.10
2018-11-25T05:41:09.572Z,37.90
2018-11-25T05:43:40.115Z,34.10
2018-11-25T05:46:10.664Z,30.57
2018-11-25T05:48:41.207Z,32.63
2018-11-25T05:51:11.756Z,48.67
2018-11-25T05:53:42.363Z,35.23
2018-11-25T05:56:12.923Z,34.73
2018-11-25T05:58:43.462Z,31.63
2018-11-25T06:01:14.020Z,36.07
2018-11-25T06:03:44.540Z,43.33
2018-11-25T06:06:15.039Z,40.33
2018-11-25T06:08:45.800Z,37.33
2018-11-25T06:11:16.414Z,42.10
2018-11-25T06:13:46.906Z,41.57
2018-11-25T06:16:17.452Z,24.53
2018-11-25T06:18:47.979Z,29.57
2018-11-25T06:21:18.532Z,27.57
2018-11-25T06:23:49.151Z,22.47
2018-11-25T06:26:19.653Z,18.90
2018-11-25T06:28:50.329Z,18.27
2018-11-25T06:31:20.921Z,19.43
2018-11-25T06:33:51.485Z,22.27
2018-11-25T06:36:22.047Z,27.37
2018-11-25T06:38:52.613Z,25.07
2018-11-25T06:41:23.160Z,21.63
2018-11-25T06:43:53.731Z,21.80
2018-11-25T06:46:24.201Z,24.80
2018-11-25T06:48:55.133Z,27.43
2018-11-25T06:51:25.387Z,30.10
2018-11-25T06:53:56.703Z,32.13
2018-11-25T06:56:27.436Z,33.03
2018-11-25T06:58:57.768Z,31.60
2018-11-25T07:01:28.295Z,27.33
2018-11-25T07:03:58.803Z,28.67
2018-11-25T07:06:29.388Z,26.37
2018-11-25T07:08:59.999Z,25.20
2018-11-25T07:11:30.595Z,24.90
2018-11-25T07:14:01.147Z,25.87
2018-11-25T07:16:31.692Z,24.53
2018-11-25T07:19:02.255Z,24.77
2018-11-25T07:21:32.834Z,23.13
2018-11-25T07:24:03.431Z,25.00
2018-11-25T07:26:34.054Z,21.57
2018-11-25T07:29:04.840Z,20.67
2018-11-25T07:31:35.371Z,25.30
2018-11-25T07:34:05.948Z,19.13
2018-11-25T07:36:36.550Z,17.80
2018-11-25T07:39:08.532Z,20.40
2018-11-25T07:41:39.060Z,21.33
2018-11-25T07:44:09.614Z,18.40
2018-11-25T07:51:40.231Z,17.40
2018-11-25T07:54:11.046Z,21.07
2018-11-25T07:56:41.632Z,16.43
2018-11-25T07:59:12.177Z,19.33
2018-11-25T08:01:42.671Z,20.80
2018-11-25T08:04:13.338Z,22.63
2018-11-25T08:06:43.883Z,21.10
2018-11-25T08:09:14.473Z,18.43
2018-11-25T08:11:45.548Z,18.07
2018-11-25T08:14:16.154Z,18.13
2018-11-25T08:16:46.626Z,16.90
2018-11-25T08:19:17.268Z,17.83
2018-11-25T08:21:47.777Z,18.30
2018-11-25T08:24:18.437Z,17.13
2018-11-25T08:26:49.071Z,13.30
2018-11-25T08:29:19.876Z,15.83
2018-11-25T08:31:50.598Z,13.77
2018-11-25T08:34:21.399Z,16.37
2018-11-25T08:36:51.733Z,14.97
2018-11-25T08:39:22.355Z,16.73
2018-11-25T08:41:52.853Z,26.87
2018-11-25T08:44:23.427Z,22.10
2018-11-25T08:46:54.287Z,17.77
2018-11-25T08:49:25.123Z,15.63
2018-11-25T08:51:55.705Z,13.03
2018-11-25T08:54:26.281Z,16.47
2018-11-25T09:01:42.202Z,13.70
2018-11-25T09:04:12.831Z,13.60
2018-11-25T09:06:43.460Z,15.07
2018-11-25T09:09:13.928Z,14.17
2018-11-25T09:11:44.500Z,17.33
2018-11-25T09:14:15.124Z,13.80
2018-11-25T09:16:45.627Z,14.07
2018-11-25T09:19:16.319Z,15.50
2018-11-25T09:21:46.913Z,13.10
2018-11-25T09:24:17.504Z,14.90
2018-11-25T09:26:48.389Z,15.47
2018-11-25T09:29:18.911Z,18.17
2018-11-25T09:31:49.468Z,13.80
2018-11-25T09:34:20.007Z,13.33
2018-11-25T09:36:50.602Z,14.93
2018-11-25T09:39:21.210Z,17.50
2018-11-25T09:41:51.665Z,20.50
2018-11-25T09:44:22.300Z,20.13
2018-11-25T09:46:52.807Z,14.83
2018-11-25T09:49:23.363Z,14.73
2018-11-25T09:51:53.952Z,15.33
2018-11-25T09:54:24.474Z,15.83
2018-11-25T09:56:55.000Z,14.43
2018-11-25T09:59:25.742Z,15.77
2018-11-25T10:01:56.365Z,15.43
2018-11-25T10:04:26.872Z,16.23
2018-11-25T10:06:57.418Z,17.27
2018-11-25T10:09:28.013Z,18.33
2018-11-25T10:11:58.617Z,14.53
2018-11-25T10:14:29.176Z,14.83
2018-11-25T10:16:59.695Z,15.43
2018-11-25T10:19:30.529Z,20.27
2018-11-25T10:22:01.055Z,21.60
2018-11-25T10:24:31.620Z,19.40
2018-11-25T10:27:02.242Z,18.33
2018-11-25T10:29:32.822Z,20.73
2018-11-25T10:32:03.490Z,19.17
2018-11-25T10:34:34.005Z,17.27
2018-11-25T10:37:04.734Z,15.60
2018-11-25T10:39:35.471Z,14.63
2018-11-25T10:42:06.429Z,16.97
2018-11-25T10:44:37.128Z,16.77
2018-11-25T10:47:08.225Z,14.87
2018-11-25T10:49:38.893Z,15.07
2018-11-25T10:52:09.458Z,14.23
2018-11-25T10:54:39.984Z,16.90
2018-11-25T10:57:10.552Z,17.23
2018-11-25T10:59:41.060Z,18.57
2018-11-25T11:02:16.635Z,19.27
2018-11-25T11:04:52.279Z,17.90
2018-11-25T11:07:23.766Z,21.27
2018-11-25T11:09:54.239Z,18.20
2018-11-25T11:12:24.809Z,17.20
2018-11-25T11:14:55.423Z,15.80
2018-11-25T11:17:25.920Z,16.80
2018-11-25T11:19:56.810Z,16.47
2018-11-25T11:22:27.394Z,16.67
2018-11-25T11:24:57.987Z,14.80
2018-11-25T11:27:28.451Z,14.97
2018-11-25T11:29:59.015Z,14.47
2018-11-25T11:32:29.517Z,15.67
2018-11-25T11:35:00.115Z,15.47
2018-11-25T11:37:30.640Z,16.10
2018-11-25T11:40:01.211Z,15.93
2018-11-25T11:42:31.821Z,17.13
2018-11-25T11:45:02.367Z,16.20
2018-11-25T11:47:32.913Z,15.87
2018-11-25T11:50:03.429Z,16.97
2018-11-25T11:52:33.936Z,18.33
2018-11-25T11:55:04.522Z,16.93
2018-11-25T11:57:35.215Z,19.53
2018-11-25T12:00:11.451Z,17.93
2018-11-25T12:02:42.163Z,15.03
2018-11-25T12:05:12.765Z,15.53
2018-11-25T12:07:43.437Z,18.90
2018-11-25T12:10:15.231Z,16.13
2018-11-25T12:12:45.749Z,17.07
2018-11-25T12:15:29.977Z,15.17
2018-11-25T12:17:53.324Z,17.30
2018-11-25T12:20:24.804Z,17.77
2018-11-25T12:22:56.148Z,17.27
2018-11-25T12:25:26.735Z,18.13
2018-11-25T12:27:57.470Z,19.47
2018-11-25T12:30:28.022Z,16.97
2018-11-25T12:32:58.658Z,18.60
2018-11-25T12:35:29.404Z,27.07
2018-11-25T12:37:59.973Z,22.07
2018-11-25T12:40:30.776Z,18.53
2018-11-25T12:43:01.348Z,23.37
2018-11-25T12:45:31.899Z,18.43
2018-11-25T12:48:02.495Z,16.67
2018-11-25T12:50:32.972Z,16.90
2018-11-25T12:53:03.510Z,21.40
2018-11-25T12:55:34.059Z,18.00
2018-11-25T12:58:05.260Z,17.30
2018-11-25T13:00:38.451Z,17.43
2018-11-25T13:03:10.321Z,18.00
2018-11-25T13:05:45.859Z,17.70
2018-11-25T13:08:12.452Z,17.10
2018-11-25T13:10:43.157Z,14.57
2018-11-25T13:13:13.872Z,16.70
2018-11-25T13:15:44.403Z,18.73
2018-11-25T13:18:14.957Z,18.87
2018-11-25T13:20:46.903Z,16.43
2018-11-25T13:23:17.568Z,16.33
2018-11-25T13:25:48.175Z,18.40
2018-11-25T13:28:18.746Z,15.50
2018-11-25T13:30:49.327Z,18.83
2018-11-25T13:33:20.029Z,19.53
2018-11-25T13:35:51.589Z,17.50
2018-11-25T13:38:22.291Z,17.03
2018-11-25T13:40:53.238Z,24.20
2018-11-25T13:43:23.786Z,19.67
2018-11-25T13:45:54.291Z,19.87
2018-11-25T13:48:24.872Z,18.77
2018-11-25T13:50:55.614Z,18.17
2018-11-25T13:53:26.263Z,19.17
2018-11-25T13:55:56.791Z,22.07
2018-11-25T13:58:27.339Z,22.73
2018-11-25T14:00:58.231Z,22.60
2018-11-25T14:03:31.646Z,21.50
2018-11-25T14:06:02.364Z,21.73
2018-11-25T14:08:32.877Z,22.47
2018-11-25T14:11:08.354Z,23.43
2018-11-25T14:13:38.971Z,28.77
2018-11-25T14:16:11.371Z,24.33
2018-11-25T14:18:41.896Z,28.27
2018-11-25T14:21:13.375Z,24.77
2018-11-25T14:23:43.897Z,26.17
2018-11-25T14:26:23.518Z,25.80
2018-11-25T14:28:54.442Z,25.13
2018-11-25T14:31:25.044Z,31.60
2018-11-25T14:33:55.565Z,28.87
2018-11-25T14:36:26.069Z,28.17
2018-11-25T14:38:56.598Z,34.53
2018-11-25T14:41:27.407Z,33.67
2018-11-25T14:43:57.924Z,46.97
2018-11-25T14:46:28.471Z,28.30
2018-11-25T14:48:59.014Z,39.50
2018-11-25T14:51:29.584Z,40.97
2018-11-25T14:54:00.108Z,33.93
2018-11-25T14:56:30.691Z,31.17
2018-11-25T14:59:01.197Z,41.83
2018-11-25T15:01:32.054Z,31.60
2018-11-25T15:04:02.507Z,31.53
2018-11-25T15:06:33.066Z,27.97
2018-11-25T15:09:03.704Z,33.87
2018-11-25T15:11:34.360Z,33.50
2018-11-25T15:14:04.957Z,31.53
2018-11-25T15:16:35.552Z,33.07
2018-11-25T15:19:06.539Z,31.57
2018-11-25T15:21:37.145Z,30.73
2018-11-25T15:24:07.721Z,38.90
2018-11-25T15:26:38.251Z,27.83
2018-11-25T15:29:08.923Z,29.73
2018-11-25T15:31:39.480Z,29.57
2018-11-25T15:34:10.076Z,31.10
2018-11-25T15:36:40.574Z,26.53
2018-11-25T15:39:12.747Z,31.77
2018-11-25T15:41:43.478Z,29.20
2018-11-25T15:44:14.161Z,29.30
2018-11-25T15:46:44.754Z,35.60
2018-11-25T15:49:15.290Z,35.50
2018-11-25T15:51:45.781Z,37.20
2018-11-25T15:54:16.336Z,28.70
2018-11-25T15:56:46.953Z,26.60
2018-11-25T15:59:17.494Z,26.20
2018-11-25T16:01:48.388Z,24.13
2018-11-25T16:04:18.930Z,30.87
2018-11-25T16:06:49.503Z,25.67
2018-11-25T16:09:20.090Z,29.43
2018-11-25T16:11:50.579Z,24.57
2018-11-25T16:14:21.411Z,24.90
2018-11-25T16:16:51.961Z,24.53
2018-11-25T16:19:22.488Z,24.23
2018-11-25T16:21:53.135Z,23.40
2018-11-25T16:24:23.717Z,27.63
2018-11-25T16:26:54.357Z,23.33
2018-11-25T16:29:27.099Z,23.60
2018-11-25T16:31:57.692Z,22.57
2018-11-25T16:34:28.175Z,29.23
2018-11-25T16:36:58.773Z,24.10
2018-11-25T16:39:29.292Z,22.23
2018-11-25T16:42:00.413Z,27.57
2018-11-25T16:44:30.937Z,28.27
2018-11-25T16:47:01.447Z,25.67
2018-11-25T16:49:33.282Z,24.00
2018-11-25T16:52:02.669Z,26.23
2018-11-25T16:54:33.209Z,26.20
2018-11-25T16:57:03.777Z,26.33
2018-11-25T16:59:34.318Z,24.13
2018-11-25T17:02:04.998Z,22.80
2018-11-25T17:04:35.599Z,27.03
2018-11-25T17:07:06.572Z,29.33
2018-11-25T17:09:37.132Z,24.87
2018-11-25T17:12:07.775Z,21.10
2018-11-25T17:14:38.363Z,24.83
2018-11-25T17:17:08.931Z,23.47
2018-11-25T17:19:39.501Z,25.50
2018-11-25T17:22:16.434Z,25.13
2018-11-25T17:24:41.339Z,26.23
2018-11-25T17:27:11.915Z,22.43
2018-11-25T17:29:42.874Z,24.63
2018-11-25T17:32:13.391Z,26.60
2018-11-25T17:34:43.975Z,22.20
2018-11-25T17:37:14.486Z,22.37
2018-11-25T17:39:44.984Z,32.87
2018-11-25T17:42:15.535Z,24.17
2018-11-25T17:44:46.084Z,27.37
2018-11-25T17:47:16.701Z,28.43
2018-11-25T17:49:47.297Z,27.83
2018-11-25T17:52:17.883Z,23.17
2018-11-25T17:54:48.523Z,22.57
2018-11-25T17:57:19.167Z,22.27
2018-11-25T17:59:49.737Z,20.10
2018-11-25T18:02:20.382Z,24.93
2018-11-25T18:04:51.033Z,24.07
2018-11-25T18:07:21.728Z,20.93
2018-11-25T18:09:52.271Z,25.73
2018-11-25T18:12:22.907Z,23.20
2018-11-25T18:14:53.429Z,22.93
2018-11-25T18:17:23.980Z,22.33
2018-11-25T18:19:54.569Z,23.93
2018-11-25T18:22:27.874Z,25.17
2018-11-25T18:24:58.460Z,36.77
2018-11-25T18:27:29.117Z,20.87
2018-11-25T18:29:59.723Z,20.47
2018-11-25T18:32:30.266Z,22.27
2018-11-25T18:35:00.923Z,24.37
2018-11-25T18:37:31.584Z,22.50
2018-11-25T18:40:02.988Z,20.13
2018-11-25T18:42:33.813Z,23.60
2018-11-25T18:53:05.923Z,20.40
2018-11-25T18:55:34.633Z,20.13
2018-11-25T18:58:05.212Z,20.40
2018-11-25T19:00:40.427Z,21.97
2018-11-25T19:03:11.065Z,21.70
2018-11-25T19:05:41.703Z,25.77
2018-11-25T19:08:12.372Z,19.53
2018-11-25T19:10:43.158Z,21.63
2018-11-25T19:13:13.828Z,23.13
2018-11-25T19:15:44.453Z,24.03
2018-11-25T19:18:15.101Z,23.00
2018-11-25T19:20:45.602Z,27.17
2018-11-25T19:23:16.152Z,24.27
2018-11-25T19:25:46.795Z,26.43
2018-11-25T19:28:17.610Z,21.17
2018-11-25T19:30:48.561Z,22.00
2018-11-25T19:33:19.152Z,25.00
2018-11-25T19:35:49.726Z,27.07
2018-11-25T19:38:20.353Z,26.50
2018-11-25T19:40:51.094Z,21.67
2018-11-25T19:43:21.610Z,20.33
2018-11-25T19:45:52.125Z,23.73
2018-11-25T19:48:22.739Z,30.73
2018-11-25T19:50:53.490Z,31.97
2018-11-25T19:53:24.077Z,27.07
2018-11-25T19:55:54.719Z,29.97
2018-11-25T19:58:25.306Z,24.27
2018-11-25T20:00:55.815Z,25.33
2018-11-25T20:03:26.362Z,36.30
2018-11-25T20:05:57.039Z,35.70
2018-11-25T20:08:27.533Z,38.33
2018-11-25T20:10:58.580Z,36.73
2018-11-25T20:13:29.073Z,35.93
2018-11-25T20:16:04.454Z,26.87
2018-11-25T20:18:35.126Z,34.60
2018-11-25T20:21:10.995Z,30.20
2018-11-25T20:23:41.658Z,25.80
2018-11-25T20:26:12.152Z,26.47
2018-11-25T20:28:42.736Z,25.10
2018-11-25T20:31:13.554Z,31.60
2018-11-25T20:33:52.274Z,31.27
2018-11-25T20:36:19.170Z,21.13
2018-11-25T20:38:54.655Z,24.20
2018-11-25T20:41:25.279Z,25.20
2018-11-25T20:43:55.937Z,26.60
2018-11-25T20:46:31.437Z,28.07
2018-11-25T20:49:02.080Z,22.93
2018-11-25T20:51:37.654Z,26.73
2018-11-25T20:54:08.377Z,21.23
2018-11-25T20:56:38.981Z,19.80
2018-11-25T20:59:09.530Z,20.60
2018-11-25T21:01:40.233Z,20.60
2018-11-25T21:04:10.823Z,20.40
2018-11-25T21:06:41.500Z,21.77
2018-11-25T21:09:12.137Z,21.57
2018-11-25T21:11:42.836Z,22.00
2018-11-25T21:14:13.743Z,20.47
2018-11-25T21:16:44.354Z,20.27
2018-11-25T21:19:15.028Z,20.83
2018-11-25T21:21:45.618Z,19.80
2018-11-25T21:24:16.186Z,21.43
2018-11-25T21:26:46.735Z,20.27
2018-11-25T21:29:17.414Z,21.37
2018-11-25T21:31:48.284Z,21.00
2018-11-25T21:34:18.795Z,20.73
2018-11-25T21:36:49.359Z,18.47
2018-11-25T21:39:19.786Z,20.50
2018-11-25T21:41:50.402Z,20.03
2018-11-25T21:44:20.862Z,20.87
2018-11-25T21:46:51.365Z,20.87
2018-11-25T21:49:21.902Z,19.67
2018-11-25T21:51:53.718Z,20.03
2018-11-25T21:54:24.286Z,21.43
2018-11-25T21:56:54.782Z,20.03
2018-11-25T21:59:25.385Z,19.00
2018-11-25T22:01:55.927Z,20.43
2018-11-25T22:04:26.564Z,21.03
2018-11-25T22:06:57.082Z,21.47
2018-11-25T22:09:27.644Z,19.83
2018-11-25T22:11:58.420Z,20.53
2018-11-25T22:14:29.008Z,21.53
2018-11-25T22:16:59.487Z,20.37
2018-11-25T22:19:30.264Z,21.07
2018-11-25T22:22:00.829Z,20.63
2018-11-25T22:24:31.331Z,20.90
2018-11-25T22:27:01.856Z,18.57
2018-11-25T22:29:32.408Z,20.60
2018-11-25T22:32:03.049Z,17.97
2018-11-25T22:34:33.583Z,21.47
2018-11-25T22:37:04.219Z,21.43
2018-11-25T22:39:34.789Z,23.67
2018-11-25T22:47:07.552Z,18.77
2018-11-25T22:49:38.012Z,19.47
2018-11-25T22:52:08.642Z,20.83
2018-11-25T22:54:39.093Z,19.27
2018-11-25T22:57:09.626Z,19.40
2018-11-25T22:59:40.135Z,21.90
2018-11-25T23:02:10.657Z,21.90
2018-11-25T23:04:51.714Z,24.50
2018-11-25T23:07:22.266Z,19.80
2018-11-25T23:09:52.832Z,20.63
2018-11-25T23:12:23.320Z,18.20
2018-11-25T23:14:53.842Z,17.83
2018-11-25T23:17:24.396Z,20.43
2018-11-25T23:19:55.024Z,19.83
2018-11-25T23:22:25.593Z,18.77
2018-11-25T23:24:56.426Z,19.77
2018-11-25T23:27:26.931Z,19.93
2018-11-25T23:29:57.470Z,18.47
2018-11-25T23:32:27.998Z,18.97
2018-11-25T23:34:58.577Z,18.23
2018-11-25T23:37:29.119Z,18.90
2018-11-25T23:39:59.736Z,20.17
2018-11-25T23:42:30.288Z,19.10
2018-11-25T23:45:00.890Z,20.33
2018-11-25T23:47:31.416Z,18.60
2018-11-25T23:50:01.994Z,19.27
2018-11-25T23:52:32.599Z,18.07
2018-11-25T23:55:03.160Z,15.73
2018-11-25T23:57:34.877Z,18.50
